createdAt,value
2023-01-26T00:01:23.749Z,12.55
2023-01-26T00:03:51.600Z,13.10
2023-01-26T00:06:20.568Z,12.48
2023-01-26T00:08:49.246Z,12.73
2023-01-26T00:11:17.839Z,12.73
2023-01-26T00:13:45.343Z,12.32
2023-01-26T00:16:13.864Z,13.48
2023-01-26T00:18:41.747Z,14.57
2023-01-26T00:21:09.928Z,14.25
2023-01-26T00:23:37.407Z,13.77
2023-01-26T00:26:06.911Z,14.38
2023-01-26T00:28:34.385Z,13.73
2023-01-26T00:31:05.669Z,15.02
2023-01-26T00:33:33.432Z,13.05
2023-01-26T00:36:00.870Z,13.85
2023-01-26T00:38:28.732Z,13.02
2023-01-26T00:40:56.257Z,13.05
2023-01-26T00:43:23.823Z,14.10
2023-01-26T00:45:52.541Z,12.07
2023-01-26T00:48:22.927Z,12.60
2023-01-26T00:50:52.437Z,12.43
2023-01-26T00:53:20.129Z,11.00
2023-01-26T00:55:47.649Z,12.65
2023-01-26T00:58:15.077Z,12.10
2023-01-26T01:00:42.602Z,13.20
2023-01-26T01:03:11.062Z,14.35
2023-01-26T01:05:38.720Z,10.93
2023-01-26T01:08:06.228Z,12.60
2023-01-26T01:10:35.554Z,13.18
2023-01-26T01:13:03.025Z,12.40
2023-01-26T01:15:30.484Z,12.32
2023-01-26T01:17:58.039Z,11.00
2023-01-26T01:20:25.528Z,12.40
2023-01-26T01:22:53.095Z,12.18
2023-01-26T01:25:20.592Z,12.63
2023-01-26T01:27:47.998Z,12.02
2023-01-26T01:30:15.740Z,13.55
2023-01-26T01:32:44.908Z,12.40
2023-01-26T01:35:12.431Z,11.95
2023-01-26T01:37:39.902Z,11.35
2023-01-26T01:40:08.236Z,13.00
2023-01-26T01:42:35.746Z,11.90
2023-01-26T01:45:22.163Z,12.88
2023-01-26T01:47:49.700Z,12.00
2023-01-26T01:50:17.948Z,12.85
2023-01-26T01:52:45.472Z,12.43
2023-01-26T01:55:16.248Z,13.82
2023-01-26T01:57:46.594Z,12.40
2023-01-26T02:00:14.285Z,11.23
2023-01-26T02:02:42.321Z,12.00
2023-01-26T02:05:14.668Z,12.98
2023-01-26T02:07:42.173Z,12.80
2023-01-26T02:10:19.245Z,12.82
2023-01-26T02:12:51.691Z,12.20
2023-01-26T02:15:19.156Z,12.88
2023-01-26T02:17:46.623Z,11.27
2023-01-26T02:20:17.115Z,11.68
2023-01-26T02:23:01.524Z,11.35
2023-01-26T02:25:38.306Z,10.77
2023-01-26T02:28:07.382Z,11.55
2023-01-26T02:30:35.172Z,11.75
2023-01-26T02:33:02.767Z,11.50
2023-01-26T02:35:30.349Z,11.25
2023-01-26T02:37:59.955Z,11.45
2023-01-26T02:40:27.563Z,11.57
2023-01-26T02:42:55.411Z,10.98
2023-01-26T02:45:23.223Z,11.32
2023-01-26T02:47:50.706Z,11.35
2023-01-26T02:50:18.251Z,12.88
2023-01-26T02:52:45.736Z,10.93
2023-01-26T02:55:28.717Z,11.23
2023-01-26T02:57:56.428Z,11.80
2023-01-26T03:00:29.213Z,11.70
2023-01-26T03:02:57.986Z,11.98
2023-01-26T03:05:27.191Z,12.52
2023-01-26T03:07:55.772Z,12.32
2023-01-26T03:10:27.200Z,12.82
2023-01-26T03:12:54.705Z,12.85
2023-01-26T03:15:40.681Z,11.63
2023-01-26T03:18:32.419Z,11.63
2023-01-26T03:21:22.384Z,11.65
2023-01-26T03:24:08.834Z,11.95
2023-01-26T03:26:56.002Z,10.93
2023-01-26T03:29:23.749Z,12.25
2023-01-26T03:31:52.664Z,12.13
2023-01-26T03:34:20.597Z,12.23
2023-01-26T03:36:48.930Z,11.55
2023-01-26T03:39:36.761Z,12.15
2023-01-26T03:42:24.191Z,11.88
2023-01-26T03:45:10.281Z,12.30
2023-01-26T03:47:59.405Z,12.73
2023-01-26T03:50:45.912Z,12.13
2023-01-26T03:53:32.876Z,13.68
2023-01-26T03:56:20.793Z,12.82
2023-01-26T03:58:51.675Z,13.25
2023-01-26T04:01:26.466Z,11.95
2023-01-26T04:04:17.043Z,13.35
2023-01-26T04:07:06.202Z,12.57
2023-01-26T04:09:35.210Z,13.65
2023-01-26T04:12:02.647Z,13.80
2023-01-26T04:14:50.750Z,12.70
2023-01-26T04:17:41.916Z,13.68
2023-01-26T04:20:28.606Z,13.60
2023-01-26T04:22:56.580Z,13.02
2023-01-26T04:25:24.373Z,13.27
2023-01-26T04:27:52.573Z,14.18
2023-01-26T04:30:20.773Z,13.57
2023-01-26T04:32:48.868Z,14.20
2023-01-26T04:35:17.076Z,13.90
2023-01-26T04:37:44.807Z,13.20
2023-01-26T04:40:12.809Z,14.02
2023-01-26T04:42:41.511Z,13.50
2023-01-26T04:45:10.905Z,14.45
2023-01-26T04:47:39.103Z,12.93
2023-01-26T04:50:07.016Z,12.85
2023-01-26T04:52:34.595Z,14.73
2023-01-26T04:55:02.092Z,14.15
2023-01-26T04:57:32.523Z,15.10
2023-01-26T05:00:02.322Z,15.32
2023-01-26T05:02:29.774Z,14.70
2023-01-26T05:04:57.501Z,15.32
2023-01-26T05:07:26.025Z,14.40
2023-01-26T05:09:55.721Z,14.98
2023-01-26T05:12:42.827Z,15.13
2023-01-26T05:15:28.817Z,15.13
2023-01-26T05:18:22.037Z,15.23
2023-01-26T05:21:12.785Z,14.18
2023-01-26T05:23:45.363Z,14.82
2023-01-26T05:26:33.122Z,14.13
2023-01-26T05:29:04.430Z,16.45
2023-01-26T05:31:32.562Z,16.30
2023-01-26T05:34:00.044Z,15.02
2023-01-26T05:36:27.709Z,17.27
2023-01-26T05:38:55.823Z,18.95
2023-01-26T05:41:27.737Z,19.40
2023-01-26T05:44:22.539Z,16.05
2023-01-26T05:46:54.872Z,17.67
2023-01-26T05:49:22.874Z,17.40
2023-01-26T05:51:51.553Z,15.93
2023-01-26T05:54:19.091Z,16.30
2023-01-26T05:56:46.650Z,14.55
2023-01-26T05:59:14.665Z,16.35
2023-01-26T06:01:43.768Z,15.73
2023-01-26T06:04:12.420Z,13.70
2023-01-26T06:06:56.267Z,16.08
2023-01-26T06:09:27.707Z,14.90
2023-01-26T06:12:01.353Z,14.52
2023-01-26T06:14:47.552Z,15.02
2023-01-26T06:17:16.577Z,16.63
2023-01-26T06:19:44.258Z,17.75
2023-01-26T06:22:13.238Z,16.08
2023-01-26T06:24:44.799Z,15.43
2023-01-26T06:27:16.592Z,16.52
2023-01-26T06:29:46.304Z,16.63
2023-01-26T06:32:14.582Z,16.65
2023-01-26T06:34:43.922Z,15.63
2023-01-26T06:37:11.429Z,15.55
2023-01-26T06:39:41.679Z,15.60
2023-01-26T06:42:09.714Z,16.25
2023-01-26T06:44:38.934Z,18.83
2023-01-26T06:47:07.768Z,20.27
2023-01-26T06:49:36.039Z,17.10
2023-01-26T06:52:22.450Z,16.90
2023-01-26T06:54:52.742Z,20.80
2023-01-26T06:57:42.967Z,18.02
2023-01-26T07:00:29.052Z,19.10
2023-01-26T07:03:13.476Z,16.95
2023-01-26T07:05:41.088Z,19.60
2023-01-26T07:08:08.890Z,16.27
2023-01-26T07:10:37.060Z,14.68
2023-01-26T07:13:05.329Z,16.38
2023-01-26T07:15:32.853Z,17.48
2023-01-26T07:18:00.615Z,16.55
2023-01-26T07:20:28.687Z,16.15
2023-01-26T07:22:56.165Z,17.70
2023-01-26T07:25:23.575Z,17.90
2023-01-26T07:27:55.800Z,17.08
2023-01-26T07:30:23.367Z,16.00
2023-01-26T07:32:50.862Z,16.60
2023-01-26T07:35:18.635Z,16.30
2023-01-26T07:37:46.091Z,16.30
2023-01-26T07:40:13.915Z,14.57
2023-01-26T07:42:41.469Z,17.48
2023-01-26T07:45:19.379Z,18.48
2023-01-26T07:47:46.976Z,15.50
2023-01-26T07:50:14.927Z,18.58
2023-01-26T07:52:43.721Z,18.02
2023-01-26T07:55:11.528Z,16.92
2023-01-26T07:57:38.939Z,18.63
2023-01-26T08:00:06.639Z,14.30
2023-01-26T08:02:39.252Z,19.17
2023-01-26T08:05:07.012Z,15.77
2023-01-26T08:07:34.760Z,16.23
2023-01-26T08:10:02.235Z,16.27
2023-01-26T08:12:29.670Z,15.35
2023-01-26T08:14:57.114Z,16.42
2023-01-26T08:17:24.496Z,15.63
2023-01-26T08:19:52.004Z,14.82
2023-01-26T08:22:19.394Z,16.75
2023-01-26T08:24:46.881Z,15.98
2023-01-26T08:27:16.195Z,15.77
2023-01-26T08:29:43.733Z,15.55
2023-01-26T08:32:11.198Z,16.27
2023-01-26T08:34:38.648Z,16.65
2023-01-26T08:37:06.128Z,18.60
2023-01-26T08:39:33.728Z,14.55
2023-01-26T08:42:01.191Z,18.38
2023-01-26T08:44:28.692Z,16.30
2023-01-26T08:46:56.263Z,17.40
2023-01-26T08:49:23.722Z,14.88
2023-01-26T08:51:51.133Z,16.20
2023-01-26T08:54:18.719Z,14.57
2023-01-26T08:56:46.166Z,17.77
2023-01-26T08:59:13.627Z,15.57
2023-01-26T09:01:41.082Z,17.73
2023-01-26T09:04:08.603Z,16.92
2023-01-26T09:06:36.079Z,15.50
2023-01-26T09:09:03.533Z,15.40
2023-01-26T09:11:31.826Z,14.95
2023-01-26T09:13:59.357Z,15.95
2023-01-26T09:16:26.836Z,14.30
2023-01-26T09:18:54.753Z,14.20
2023-01-26T09:21:24.072Z,17.38
2023-01-26T09:23:51.612Z,16.73
2023-01-26T09:26:19.030Z,16.27
2023-01-26T09:28:50.234Z,17.30
2023-01-26T09:31:17.936Z,18.02
2023-01-26T09:33:45.604Z,22.33
2023-01-26T09:36:13.601Z,32.15
2023-01-26T09:38:41.225Z,21.02
2023-01-26T09:41:08.694Z,18.08
2023-01-26T09:43:48.607Z,21.52
2023-01-26T09:46:36.412Z,16.45
2023-01-26T09:49:11.808Z,11.15
2023-01-26T09:54:21.893Z,19.63
2023-01-26T09:56:49.322Z,17.40
2023-01-26T09:59:26.841Z,19.00
2023-01-26T10:01:54.245Z,15.13
2023-01-26T10:04:36.529Z,13.40
2023-01-26T10:07:06.631Z,14.48
2023-01-26T10:09:49.640Z,14.27
2023-01-26T10:12:24.039Z,17.88
2023-01-26T10:15:17.785Z,16.80
2023-01-26T10:17:46.767Z,20.48
2023-01-26T10:20:14.157Z,21.02
2023-01-26T10:22:41.604Z,19.85
2023-01-26T10:25:17.138Z,16.15
2023-01-26T10:27:46.054Z,14.18
2023-01-26T10:30:14.454Z,15.23
2023-01-26T10:32:43.142Z,17.77
2023-01-26T10:35:30.984Z,17.50
2023-01-26T10:37:58.558Z,15.75
2023-01-26T10:40:26.500Z,16.92
2023-01-26T10:42:58.145Z,16.48
2023-01-26T10:45:30.564Z,15.15
2023-01-26T10:48:17.068Z,17.65
2023-01-26T10:50:44.670Z,16.33
2023-01-26T10:53:17.009Z,15.05
2023-01-26T10:55:44.518Z,19.20
2023-01-26T10:58:31.566Z,18.38
2023-01-26T11:01:00.536Z,17.52
2023-01-26T11:03:28.888Z,15.30
2023-01-26T11:06:08.592Z,17.83
2023-01-26T11:08:37.486Z,16.52
2023-01-26T11:11:08.036Z,15.75
2023-01-26T11:13:35.548Z,19.77
2023-01-26T11:16:18.361Z,19.15
2023-01-26T11:18:54.952Z,19.48
2023-01-26T11:21:33.606Z,17.75
2023-01-26T11:24:17.991Z,17.15
2023-01-26T11:27:01.997Z,19.88
2023-01-26T11:29:38.376Z,17.38
2023-01-26T11:32:22.523Z,16.02
2023-01-26T11:34:54.241Z,18.95
2023-01-26T11:37:24.789Z,18.55
2023-01-26T11:39:55.240Z,19.67
2023-01-26T11:42:22.718Z,19.88
2023-01-26T11:44:50.121Z,18.17
2023-01-26T11:47:26.516Z,20.10
2023-01-26T11:50:03.086Z,19.00
2023-01-26T11:52:30.520Z,21.27
2023-01-26T11:55:03.648Z,18.90
2023-01-26T11:57:57.858Z,20.65
2023-01-26T12:00:31.134Z,22.13
2023-01-26T12:03:06.168Z,23.13
2023-01-26T12:05:53.464Z,20.90
2023-01-26T12:08:39.841Z,21.40
2023-01-26T12:11:22.974Z,21.20
2023-01-26T12:14:03.184Z,21.02
2023-01-26T12:16:36.783Z,20.10
2023-01-26T12:19:12.407Z,20.75
2023-01-26T12:21:43.401Z,20.98
2023-01-26T12:24:39.215Z,21.83
2023-01-26T12:27:03.364Z,20.40
2023-01-26T12:29:57.178Z,21.92
2023-01-26T12:32:25.829Z,21.85
2023-01-26T12:34:53.274Z,22.00
2023-01-26T12:37:20.754Z,18.02
2023-01-26T12:39:51.152Z,19.88
2023-01-26T12:42:39.954Z,20.63
2023-01-26T12:45:10.895Z,21.60
2023-01-26T12:47:45.379Z,19.27
2023-01-26T12:50:28.119Z,21.52
2023-01-26T12:53:14.401Z,20.52
2023-01-26T12:55:53.939Z,21.80
2023-01-26T12:58:27.995Z,19.88
2023-01-26T13:00:58.543Z,21.67
2023-01-26T13:03:29.361Z,17.42
2023-01-26T13:05:56.905Z,20.08
2023-01-26T13:08:33.489Z,18.60
2023-01-26T13:11:04.271Z,21.70
2023-01-26T13:13:31.726Z,24.58
2023-01-26T13:16:17.475Z,23.25
2023-01-26T13:21:12.785Z,17.20
2023-01-26T13:23:42.028Z,22.50
2023-01-26T13:26:15.556Z,24.55
2023-01-26T13:28:43.434Z,22.58
2023-01-26T13:31:11.640Z,23.85
2023-01-26T13:33:39.892Z,25.60
2023-01-26T13:36:13.074Z,21.90
2023-01-26T13:38:43.468Z,25.30
2023-01-26T13:41:16.376Z,22.05
2023-01-26T13:43:46.145Z,23.77
2023-01-26T13:46:20.685Z,21.45
2023-01-26T13:48:49.446Z,24.40
2023-01-26T13:51:21.450Z,23.88
2023-01-26T13:53:50.932Z,24.58
2023-01-26T13:56:23.364Z,30.55
2023-01-26T13:58:51.167Z,23.90
2023-01-26T14:01:19.376Z,25.05
2023-01-26T14:03:46.961Z,22.55
2023-01-26T14:06:19.839Z,24.92
2023-01-26T14:08:51.755Z,21.85
2023-01-26T14:11:21.272Z,23.20
2023-01-26T14:13:53.031Z,24.23
2023-01-26T14:16:23.627Z,22.60
2023-01-26T14:18:52.943Z,21.88
2023-01-26T14:21:22.761Z,21.13
2023-01-26T14:23:57.075Z,21.10
2023-01-26T14:26:32.288Z,25.48
2023-01-26T14:29:03.442Z,27.08
2023-01-26T14:31:32.287Z,26.17
2023-01-26T14:34:00.560Z,19.50
2023-01-26T14:36:39.154Z,23.05
2023-01-26T14:39:17.282Z,22.65
2023-01-26T14:41:45.300Z,21.00
2023-01-26T14:44:13.201Z,21.27
2023-01-26T14:46:53.145Z,22.40
2023-01-26T14:49:29.793Z,20.83
2023-01-26T14:51:58.509Z,33.72
2023-01-26T14:54:33.083Z,27.80
2023-01-26T14:57:01.357Z,28.90
2023-01-26T14:59:34.339Z,24.33
2023-01-26T15:02:14.303Z,23.75
2023-01-26T15:04:42.794Z,21.85
2023-01-26T15:07:23.344Z,21.52
2023-01-26T15:09:54.376Z,31.77
2023-01-26T15:12:22.000Z,30.55
2023-01-26T15:14:50.960Z,24.55
2023-01-26T15:17:37.295Z,26.00
2023-01-26T15:20:12.757Z,24.08
2023-01-26T15:22:40.579Z,24.85
2023-01-26T15:25:26.166Z,23.17
2023-01-26T15:27:58.293Z,25.65
2023-01-26T15:30:27.823Z,28.23
2023-01-26T15:32:55.279Z,22.73
2023-01-26T15:35:24.437Z,27.63
2023-01-26T15:38:00.633Z,26.95
2023-01-26T15:40:28.305Z,23.73
2023-01-26T15:43:11.678Z,23.85
2023-01-26T15:45:40.624Z,25.23
2023-01-26T15:48:08.469Z,23.98
2023-01-26T15:50:35.971Z,22.75
2023-01-26T15:53:03.616Z,21.17
2023-01-26T15:55:33.401Z,23.02
2023-01-26T15:58:00.943Z,27.92
2023-01-26T16:00:28.365Z,22.70
2023-01-26T16:02:55.876Z,22.20
2023-01-26T16:05:24.131Z,21.23
2023-01-26T16:07:52.728Z,27.23
2023-01-26T16:10:20.649Z,24.33
2023-01-26T16:12:48.962Z,20.77
2023-01-26T16:15:24.590Z,21.83
2023-01-26T16:17:52.216Z,23.05
2023-01-26T16:20:20.067Z,28.15
2023-01-26T16:22:47.513Z,24.80
2023-01-26T16:25:20.048Z,25.35
2023-01-26T16:27:47.481Z,18.60
2023-01-26T16:30:14.961Z,19.65
2023-01-26T16:32:42.617Z,23.60
2023-01-26T16:35:11.439Z,20.52
2023-01-26T16:37:41.145Z,20.50
2023-01-26T16:40:12.069Z,23.38
2023-01-26T16:42:40.666Z,20.63
2023-01-26T16:45:15.362Z,20.30
2023-01-26T16:47:43.039Z,24.30
2023-01-26T16:50:11.332Z,19.95
2023-01-26T16:52:41.141Z,19.38
2023-01-26T16:55:13.006Z,18.80
2023-01-26T16:57:41.757Z,19.17
2023-01-26T17:00:19.960Z,19.52
2023-01-26T17:02:49.382Z,22.35
2023-01-26T17:05:17.955Z,27.20
2023-01-26T17:07:45.562Z,20.33
2023-01-26T17:10:14.259Z,20.77
2023-01-26T17:12:42.156Z,17.17
2023-01-26T17:15:11.584Z,21.88
2023-01-26T17:17:39.216Z,21.50
2023-01-26T17:20:18.319Z,23.02
2023-01-26T17:22:46.975Z,20.45
2023-01-26T17:25:16.625Z,22.02
2023-01-26T17:27:45.227Z,22.83
2023-01-26T17:30:12.842Z,21.95
2023-01-26T17:32:40.448Z,22.25
2023-01-26T17:35:08.035Z,25.45
2023-01-26T17:37:35.809Z,25.52
2023-01-26T17:40:03.210Z,27.08
2023-01-26T17:42:32.430Z,22.90
2023-01-26T17:44:59.844Z,25.05
2023-01-26T17:47:27.345Z,22.73
2023-01-26T17:49:54.787Z,26.48
2023-01-26T17:52:22.256Z,24.52
2023-01-26T17:54:49.645Z,24.85
2023-01-26T17:57:17.152Z,24.17
2023-01-26T17:59:44.585Z,24.23
2023-01-26T18:02:12.293Z,26.80
2023-01-26T18:04:39.762Z,24.17
2023-01-26T18:07:07.521Z,22.58
2023-01-26T18:09:35.039Z,22.98
2023-01-26T18:12:02.549Z,23.83
2023-01-26T18:14:30.136Z,25.58
2023-01-26T18:16:57.598Z,24.90
2023-01-26T18:19:25.187Z,24.27
2023-01-26T18:21:52.677Z,24.55
2023-01-26T18:24:20.141Z,24.90
2023-01-26T18:26:47.617Z,22.65
2023-01-26T18:29:16.639Z,21.55
2023-01-26T18:31:44.452Z,25.45
2023-01-26T18:34:12.439Z,22.13
2023-01-26T18:36:40.119Z,26.15
2023-01-26T18:39:09.672Z,25.23
2023-01-26T18:41:38.040Z,20.25
2023-01-26T18:44:05.747Z,22.98
2023-01-26T18:46:33.392Z,25.45
2023-01-26T18:49:01.450Z,21.67
2023-01-26T18:51:34.734Z,27.35
2023-01-26T18:54:04.124Z,24.63
2023-01-26T18:56:31.628Z,21.70
2023-01-26T18:58:59.242Z,23.65
2023-01-26T19:01:26.916Z,18.77
2023-01-26T19:03:55.460Z,23.77
2023-01-26T19:06:24.491Z,23.77
2023-01-26T19:09:00.750Z,17.42
2023-01-26T19:11:29.230Z,21.67
2023-01-26T19:13:56.648Z,19.63
2023-01-26T19:16:24.452Z,17.00
2023-01-26T19:18:52.631Z,21.00
2023-01-26T19:21:21.866Z,22.10
2023-01-26T19:23:49.900Z,23.02
2023-01-26T19:26:19.576Z,25.05
2023-01-26T19:28:50.236Z,23.50
2023-01-26T19:31:19.498Z,27.17
2023-01-26T19:33:50.703Z,27.13
2023-01-26T19:36:18.444Z,21.92
2023-01-26T19:38:46.418Z,21.85
2023-01-26T19:41:13.955Z,21.98
2023-01-26T19:43:41.954Z,19.50
2023-01-26T19:46:11.838Z,19.30
2023-01-26T19:48:39.746Z,23.40
2023-01-26T19:51:14.640Z,19.73
2023-01-26T19:53:46.428Z,16.42
2023-01-26T19:56:13.903Z,17.13
2023-01-26T19:58:41.469Z,18.40
2023-01-26T20:01:10.700Z,17.35
2023-01-26T20:03:38.487Z,22.77
2023-01-26T20:06:06.460Z,17.63
2023-01-26T20:08:33.989Z,19.52
2023-01-26T20:11:05.554Z,15.80
2023-01-26T20:13:33.951Z,18.27
2023-01-26T20:16:01.625Z,20.52
2023-01-26T20:18:29.074Z,19.83
2023-01-26T20:20:58.880Z,18.83
2023-01-26T20:23:28.167Z,22.73
2023-01-26T20:26:05.628Z,23.95
2023-01-26T20:28:33.186Z,23.23
2023-01-26T20:31:04.527Z,22.60
2023-01-26T20:33:32.255Z,22.50
2023-01-26T20:35:59.909Z,24.52
2023-01-26T20:38:27.385Z,25.90
2023-01-26T20:40:54.902Z,23.83
2023-01-26T20:43:22.486Z,21.67
2023-01-26T20:45:50.041Z,27.73
2023-01-26T20:48:17.543Z,22.30
2023-01-26T20:50:45.039Z,21.55
2023-01-26T20:53:12.784Z,21.90
2023-01-26T20:55:40.242Z,25.40
2023-01-26T20:58:07.804Z,24.67
2023-01-26T21:00:36.148Z,23.10
2023-01-26T21:03:03.687Z,20.00
2023-01-26T21:05:31.155Z,20.98
2023-01-26T21:07:58.664Z,27.20
2023-01-26T21:10:26.448Z,23.30
2023-01-26T21:12:53.905Z,21.33
2023-01-26T21:15:21.315Z,25.35
2023-01-26T21:17:48.800Z,26.45
2023-01-26T21:20:16.356Z,22.10
2023-01-26T21:22:43.795Z,20.50
2023-01-26T21:25:11.700Z,22.75
2023-01-26T21:27:39.187Z,23.30
2023-01-26T21:30:06.984Z,24.00
2023-01-26T21:32:34.435Z,17.55
2023-01-26T21:35:01.866Z,23.23
2023-01-26T21:37:29.369Z,24.55
2023-01-26T21:39:56.817Z,17.77
2023-01-26T21:42:25.061Z,25.60
2023-01-26T21:45:11.785Z,24.27
2023-01-26T21:47:39.617Z,22.73
2023-01-26T21:50:07.173Z,26.25
2023-01-26T21:52:53.607Z,25.60
2023-01-26T21:55:21.076Z,26.85
2023-01-26T21:58:07.074Z,23.98
2023-01-26T22:00:34.710Z,23.63
2023-01-26T22:03:02.269Z,22.98
2023-01-26T22:05:29.871Z,24.23
2023-01-26T22:07:57.294Z,20.50
2023-01-26T22:10:24.818Z,24.83
2023-01-26T22:12:52.219Z,25.05
2023-01-26T22:15:19.700Z,24.38
2023-01-26T22:17:47.198Z,23.42
2023-01-26T22:20:14.974Z,22.42
2023-01-26T22:22:42.540Z,20.63
2023-01-26T22:25:10.361Z,22.83
2023-01-26T22:27:40.268Z,25.10
2023-01-26T22:30:08.106Z,24.13
2023-01-26T22:32:35.695Z,24.05
2023-01-26T22:35:04.503Z,21.27
2023-01-26T22:37:31.994Z,23.35
2023-01-26T22:39:59.469Z,23.33
2023-01-26T22:42:26.993Z,24.92
2023-01-26T22:44:54.432Z,25.55
2023-01-26T22:47:21.848Z,20.42
2023-01-26T22:49:49.337Z,21.38
2023-01-26T22:52:16.763Z,23.75
2023-01-26T22:54:44.305Z,17.25
2023-01-26T22:57:11.711Z,21.83
2023-01-26T22:59:39.124Z,17.42
2023-01-26T23:02:06.644Z,17.60
2023-01-26T23:04:34.241Z,18.17
2023-01-26T23:07:01.908Z,19.35
2023-01-26T23:09:29.348Z,20.42
2023-01-26T23:12:02.861Z,17.85
2023-01-26T23:14:30.859Z,21.25
2023-01-26T23:16:58.576Z,20.08
2023-01-26T23:19:26.724Z,22.13
2023-01-26T23:21:54.337Z,16.67
2023-01-26T23:24:21.827Z,24.33
2023-01-26T23:26:49.334Z,23.77
2023-01-26T23:29:16.840Z,18.88
2023-01-26T23:31:44.325Z,22.27
2023-01-26T23:34:11.835Z,22.15
2023-01-26T23:36:39.226Z,23.27
2023-01-26T23:39:06.796Z,21.58
2023-01-26T23:41:34.182Z,23.60
2023-01-26T23:44:01.686Z,23.10
2023-01-26T23:46:29.434Z,23.65
2023-01-26T23:48:57.063Z,18.00
2023-01-26T23:51:24.568Z,18.83
2023-01-26T23:53:52.084Z,17.23
2023-01-26T23:56:19.497Z,19.13
2023-01-26T23:58:47.037Z,20.65
